createdAt,value
2018-02-10T00:01:51.279Z,21.85
2018-02-10T00:04:19.460Z,21.60
2018-02-10T00:06:47.655Z,21.17
2018-02-10T00:09:15.855Z,21.98
2018-02-10T00:11:44.010Z,21.42
2018-02-10T00:14:12.138Z,22.50
2018-02-10T00:16:40.338Z,24.37
2018-02-10T00:19:08.514Z,22.55
2018-02-10T00:21:36.723Z,22.40
2018-02-10T00:24:04.702Z,21.73
2018-02-10T00:26:33.318Z,23.45
2018-02-10T00:29:01.604Z,23.87
2018-02-10T00:31:30.015Z,22.83
2018-02-10T00:33:58.315Z,20.98
2018-02-10T00:36:26.599Z,21.67
2018-02-10T00:38:54.894Z,21.35
2018-02-10T00:41:23.098Z,20.48
2018-02-10T00:43:51.294Z,21.70
2018-02-10T00:46:19.595Z,22.15
2018-02-10T00:48:47.684Z,21.73
2018-02-10T00:51:15.979Z,22.65
2018-02-10T00:53:44.000Z,22.90
2018-02-10T00:56:12.154Z,24.00
2018-02-10T00:58:40.354Z,23.87
2018-02-10T01:01:08.557Z,23.90
2018-02-10T01:03:36.639Z,23.38
2018-02-10T01:06:04.961Z,23.77
2018-02-10T01:08:33.337Z,23.20
2018-02-10T01:11:01.541Z,23.70
2018-02-10T01:13:29.941Z,24.23
2018-02-10T01:15:59.175Z,23.50
2018-02-10T01:18:27.434Z,23.87
2018-02-10T01:20:55.735Z,22.80
2018-02-10T01:23:23.941Z,23.75
2018-02-10T01:25:52.240Z,22.42
2018-02-10T01:28:20.424Z,22.55
2018-02-10T01:30:48.921Z,22.52
2018-02-10T01:33:16.977Z,21.20
2018-02-10T01:35:45.114Z,22.85
2018-02-10T01:38:13.316Z,23.30
2018-02-10T01:40:41.495Z,21.98
2018-02-10T01:43:09.700Z,22.90
2018-02-10T01:45:37.976Z,23.75
2018-02-10T01:48:06.281Z,24.08
2018-02-10T01:50:34.574Z,23.73
2018-02-10T01:53:02.778Z,23.75
2018-02-10T01:55:31.275Z,24.27
2018-02-10T01:57:59.573Z,22.87
2018-02-10T02:00:27.931Z,24.12
2018-02-10T02:02:56.277Z,24.00
2018-02-10T02:05:24.475Z,23.12
2018-02-10T02:07:52.654Z,24.55
2018-02-10T02:10:20.862Z,24.55
2018-02-10T02:12:49.056Z,23.10
2018-02-10T02:15:17.162Z,23.87
2018-02-10T02:17:45.441Z,24.48
2018-02-10T02:20:14.603Z,25.23
2018-02-10T02:22:42.956Z,22.83
2018-02-10T02:25:11.361Z,25.15
2018-02-10T02:27:39.540Z,25.12
2018-02-10T02:30:07.742Z,25.02
2018-02-10T02:32:36.024Z,24.35
2018-02-10T02:35:04.337Z,24.92
2018-02-10T02:37:32.839Z,25.20
2018-02-10T02:40:01.117Z,25.58
2018-02-10T02:42:29.316Z,26.50
2018-02-10T02:44:57.519Z,23.12
2018-02-10T02:47:25.717Z,26.02
2018-02-10T02:49:53.898Z,24.42
2018-02-10T02:52:22.099Z,27.10
2018-02-10T02:54:50.199Z,25.65
2018-02-10T02:57:18.583Z,23.92
2018-02-10T02:59:46.778Z,23.67
2018-02-10T03:02:14.977Z,23.90
2018-02-10T03:04:43.479Z,24.70
2018-02-10T03:07:11.678Z,22.25
2018-02-10T03:09:39.976Z,22.33
2018-02-10T03:12:08.274Z,23.48
2018-02-10T03:14:36.559Z,24.10
2018-02-10T03:17:04.863Z,26.02
2018-02-10T03:19:33.160Z,23.77
2018-02-10T03:22:01.561Z,22.52
2018-02-10T03:24:29.757Z,25.65
2018-02-10T03:26:58.880Z,24.98
2018-02-10T03:29:27.063Z,22.62
2018-02-10T03:31:55.157Z,23.27
2018-02-10T03:34:23.201Z,22.77
2018-02-10T03:36:51.297Z,22.62
2018-02-10T03:39:19.537Z,23.38
2018-02-10T03:41:47.715Z,24.23
2018-02-10T03:44:15.917Z,24.17
2018-02-10T03:46:44.114Z,24.85
2018-02-10T03:49:12.314Z,23.87
2018-02-10T03:51:40.607Z,25.37
2018-02-10T03:54:08.894Z,24.55
2018-02-10T03:56:37.294Z,24.05
2018-02-10T03:59:05.596Z,22.73
2018-02-10T04:01:33.793Z,25.62
2018-02-10T04:04:02.201Z,23.17
2018-02-10T04:06:30.587Z,24.58
2018-02-10T04:08:58.782Z,23.85
2018-02-10T04:11:26.882Z,26.77
2018-02-10T04:13:55.060Z,24.30
2018-02-10T04:16:23.093Z,24.08
2018-02-10T04:18:51.145Z,25.85
2018-02-10T04:21:19.234Z,25.25
2018-02-10T04:23:47.435Z,24.30
2018-02-10T04:26:15.622Z,22.35
2018-02-10T04:28:43.820Z,23.02
2018-02-10T04:31:12.016Z,23.17
2018-02-10T04:33:40.427Z,24.77
2018-02-10T04:36:08.713Z,22.70
2018-02-10T04:38:36.915Z,25.08
2018-02-10T04:41:05.103Z,25.80
2018-02-10T04:43:33.407Z,24.00
2018-02-10T04:46:01.616Z,27.00
2018-02-10T04:48:29.796Z,25.12
2018-02-10T04:50:57.981Z,23.80
2018-02-10T04:53:26.175Z,26.15
2018-02-10T04:55:54.276Z,25.42
2018-02-10T04:58:22.475Z,23.95
2018-02-10T05:00:50.458Z,26.45
2018-02-10T05:03:18.658Z,24.37
2018-02-10T05:05:46.943Z,26.45
2018-02-10T05:08:15.139Z,26.15
2018-02-10T05:10:43.539Z,25.27
2018-02-10T05:13:11.833Z,22.40
2018-02-10T05:15:40.133Z,21.25
2018-02-10T05:18:08.425Z,22.73
2018-02-10T05:20:36.728Z,24.10
2018-02-10T05:23:05.023Z,25.50
2018-02-10T05:25:33.115Z,26.37
2018-02-10T05:28:01.418Z,24.60
2018-02-10T05:30:29.500Z,25.15
2018-02-10T05:32:57.694Z,24.40
2018-02-10T05:35:25.799Z,26.45
2018-02-10T05:37:53.882Z,23.60
2018-02-10T05:40:22.082Z,24.02
2018-02-10T05:42:50.060Z,26.85
2018-02-10T05:45:18.176Z,26.02
2018-02-10T05:47:46.457Z,27.80
2018-02-10T05:50:14.748Z,23.70
2018-02-10T05:52:43.059Z,27.25
2018-02-10T05:55:11.356Z,27.00
2018-02-10T05:57:39.634Z,26.55
2018-02-10T06:00:07.944Z,25.90
2018-02-10T06:02:36.338Z,24.10
2018-02-10T06:05:04.542Z,26.40
2018-02-10T06:07:32.740Z,26.30
2018-02-10T06:10:00.925Z,27.45
2018-02-10T06:12:29.125Z,26.27
2018-02-10T06:14:57.321Z,25.50
2018-02-10T06:17:25.508Z,23.90
2018-02-10T06:19:53.698Z,25.20
2018-02-10T06:22:21.895Z,24.50
2018-02-10T06:24:50.098Z,22.42
2018-02-10T06:27:18.481Z,23.50
2018-02-10T06:29:46.776Z,22.73
2018-02-10T06:32:15.083Z,24.10
2018-02-10T06:34:43.483Z,24.50
2018-02-10T06:37:11.880Z,26.87
2018-02-10T06:39:40.278Z,23.73
2018-02-10T06:42:08.480Z,26.08
2018-02-10T06:44:36.659Z,26.95
2018-02-10T06:47:04.862Z,26.45
2018-02-10T06:49:33.061Z,27.08
2018-02-10T06:52:01.063Z,27.75
2018-02-10T06:54:29.241Z,28.75
2018-02-10T06:56:57.444Z,26.85
2018-02-10T06:59:25.624Z,28.80
2018-02-10T07:01:53.823Z,28.67
2018-02-10T07:04:22.009Z,28.00
2018-02-10T07:06:49.938Z,26.33
2018-02-10T07:09:18.070Z,27.33
2018-02-10T07:11:46.300Z,29.67
2018-02-10T07:14:14.790Z,30.70
2018-02-10T07:16:42.893Z,29.33
2018-02-10T07:19:11.087Z,27.92
2018-02-10T07:21:39.622Z,27.33
2018-02-10T07:24:07.879Z,26.92
2018-02-10T07:26:36.083Z,27.87
2018-02-10T07:29:04.276Z,26.65
2018-02-10T07:31:33.093Z,28.27
2018-02-10T07:34:01.688Z,28.12
2018-02-10T07:36:29.761Z,27.77
2018-02-10T07:38:57.879Z,27.52
2018-02-10T07:41:26.358Z,27.25
2018-02-10T07:43:54.478Z,27.48
2018-02-10T07:46:22.699Z,28.08
2018-02-10T07:48:52.079Z,28.02
2018-02-10T07:51:20.379Z,26.37
2018-02-10T07:53:48.510Z,28.38
2018-02-10T07:56:16.761Z,26.65
2018-02-10T07:58:44.941Z,26.27
2018-02-10T08:01:13.462Z,28.62
2018-02-10T08:03:41.490Z,33.00
2018-02-10T08:06:09.755Z,28.85
2018-02-10T08:08:37.943Z,26.42
2018-02-10T08:11:06.242Z,26.37
2018-02-10T08:13:34.680Z,26.70
2018-02-10T08:16:02.959Z,26.00
2018-02-10T08:18:31.018Z,25.58
2018-02-10T08:20:59.289Z,27.75
2018-02-10T08:23:27.506Z,27.73
2018-02-10T08:25:55.714Z,27.90
2018-02-10T08:28:23.955Z,28.35
2018-02-10T08:30:52.327Z,25.58
2018-02-10T08:33:20.804Z,25.65
2018-02-10T08:35:49.126Z,26.58
2018-02-10T08:38:17.250Z,27.20
2018-02-10T08:40:45.632Z,26.80
2018-02-10T08:43:13.904Z,28.83
2018-02-10T08:45:42.123Z,29.27
2018-02-10T08:48:10.351Z,31.12
2018-02-10T08:50:38.560Z,29.05
2018-02-10T08:53:06.757Z,27.23
2018-02-10T08:55:35.526Z,26.60
2018-02-10T08:58:03.696Z,28.10
2018-02-10T09:00:32.178Z,23.58
2018-02-10T09:03:00.455Z,26.60
2018-02-10T09:05:28.569Z,24.58
2018-02-10T09:07:56.634Z,28.20
2018-02-10T09:10:24.938Z,27.02
2018-02-10T09:12:53.345Z,27.27
2018-02-10T09:15:21.638Z,26.48
2018-02-10T09:17:49.982Z,27.48
2018-02-10T09:20:18.232Z,27.45
2018-02-10T09:22:46.507Z,27.37
2018-02-10T09:25:14.724Z,29.37
2018-02-10T09:27:42.817Z,27.50
2018-02-10T09:30:11.115Z,28.42
2018-02-10T09:32:40.230Z,27.40
2018-02-10T09:35:08.422Z,27.10
2018-02-10T09:37:36.679Z,26.73
2018-02-10T09:40:04.897Z,26.52
2018-02-10T09:42:33.100Z,24.58
2018-02-10T09:45:01.295Z,24.75
2018-02-10T09:47:29.301Z,26.33
2018-02-10T09:49:57.488Z,26.17
2018-02-10T09:52:27.603Z,25.17
2018-02-10T09:54:56.314Z,24.77
2018-02-10T09:57:26.294Z,24.40
2018-02-10T09:59:55.374Z,22.08
2018-02-10T10:02:23.600Z,23.10
2018-02-10T10:04:52.283Z,22.73
2018-02-10T10:07:20.575Z,23.35
2018-02-10T10:09:49.060Z,23.05
2018-02-10T10:12:17.639Z,24.12
2018-02-10T10:14:45.753Z,26.58
2018-02-10T10:17:13.861Z,25.90
2018-02-10T10:19:42.460Z,23.87
2018-02-10T10:22:10.752Z,25.73
2018-02-10T10:24:38.960Z,25.40
2018-02-10T10:27:07.362Z,26.37
2018-02-10T10:29:35.710Z,24.92
2018-02-10T10:32:04.268Z,23.50
2018-02-10T10:34:32.238Z,22.50
2018-02-10T10:37:00.360Z,23.33
2018-02-10T10:39:28.640Z,24.08
2018-02-10T10:41:57.038Z,23.80
2018-02-10T10:44:25.416Z,24.95
2018-02-10T10:46:53.727Z,23.87
2018-02-10T10:49:22.124Z,24.92
2018-02-10T10:51:50.418Z,25.45
2018-02-10T10:54:18.664Z,21.10
2018-02-10T10:56:46.717Z,21.50
2018-02-10T10:59:14.755Z,21.75
2018-02-10T11:01:42.997Z,23.12
2018-02-10T11:04:11.096Z,24.17
2018-02-10T11:06:39.156Z,21.15
2018-02-10T11:09:07.196Z,18.50
2018-02-10T11:11:35.457Z,19.08
2018-02-10T11:14:03.570Z,17.83
2018-02-10T11:16:31.861Z,18.48
2018-02-10T11:19:00.166Z,19.55
2018-02-10T11:21:28.402Z,17.85
2018-02-10T11:23:56.640Z,17.60
2018-02-10T11:26:24.700Z,17.50
2018-02-10T11:28:52.941Z,21.12
2018-02-10T11:31:21.130Z,15.70
2018-02-10T11:33:49.221Z,16.58
2018-02-10T11:36:17.386Z,16.27
2018-02-10T11:38:45.507Z,17.20
2018-02-10T11:41:13.646Z,17.00
2018-02-10T11:43:41.688Z,15.55
2018-02-10T11:46:09.806Z,16.60
2018-02-10T11:48:38.284Z,16.42
2018-02-10T11:51:06.420Z,14.73
2018-02-10T11:53:34.662Z,15.35
2018-02-10T11:56:02.902Z,16.33
2018-02-10T11:58:31.284Z,15.23
2018-02-10T12:00:59.555Z,14.38
2018-02-10T12:03:27.665Z,16.55
2018-02-10T12:05:55.949Z,14.80
2018-02-10T12:08:24.033Z,16.20
2018-02-10T12:10:53.251Z,13.30
2018-02-10T12:13:21.563Z,15.52
2018-02-10T12:15:49.634Z,14.32
2018-02-10T12:18:17.953Z,15.65
2018-02-10T12:20:46.038Z,14.85
2018-02-10T12:23:14.167Z,13.25
2018-02-10T12:25:43.347Z,14.23
2018-02-10T12:28:11.590Z,13.77
2018-02-10T12:30:39.727Z,12.30
2018-02-10T12:33:07.931Z,13.88
2018-02-10T12:35:36.007Z,14.32
2018-02-10T12:38:04.226Z,14.50
2018-02-10T12:40:32.521Z,13.52
2018-02-10T12:43:01.922Z,13.32
2018-02-10T12:45:30.224Z,17.12
2018-02-10T12:47:58.536Z,15.20
2018-02-10T12:50:26.816Z,14.60
2018-02-10T12:52:55.036Z,14.95
2018-02-10T12:55:23.211Z,17.12
2018-02-10T12:57:51.397Z,18.02
2018-02-10T13:00:19.505Z,15.48
2018-02-10T13:02:47.638Z,15.60
2018-02-10T13:05:15.775Z,13.48
2018-02-10T13:07:44.017Z,14.20
2018-02-10T13:10:12.194Z,16.62
2018-02-10T13:12:40.477Z,15.70
2018-02-10T13:15:08.564Z,14.77
2018-02-10T13:17:36.765Z,16.70
2018-02-10T13:20:05.057Z,15.32
2018-02-10T13:22:33.445Z,14.32
2018-02-10T13:25:01.641Z,14.70
2018-02-10T13:27:30.049Z,13.07
2018-02-10T13:29:58.249Z,14.40
2018-02-10T13:32:26.321Z,17.90
2018-02-10T13:34:54.416Z,15.32
2018-02-10T13:37:22.616Z,16.15
2018-02-10T13:39:51.318Z,14.10
2018-02-10T13:42:19.423Z,14.15
2018-02-10T13:44:47.610Z,12.10
2018-02-10T13:47:17.021Z,12.10
2018-02-10T13:49:45.842Z,11.90
2018-02-10T13:52:13.880Z,10.88
2018-02-10T13:54:42.220Z,12.27
2018-02-10T13:57:10.318Z,11.75
2018-02-10T13:59:38.442Z,11.05
2018-02-10T14:02:06.805Z,10.75
2018-02-10T14:04:34.996Z,11.12
2018-02-10T14:07:03.307Z,12.23
2018-02-10T14:09:31.485Z,12.88
2018-02-10T14:11:59.784Z,10.95
2018-02-10T14:14:28.113Z,11.10
2018-02-10T14:16:56.217Z,11.98
2018-02-10T14:19:26.207Z,12.55
2018-02-10T14:21:54.827Z,13.85
2018-02-10T14:24:23.015Z,12.95
2018-02-10T14:26:52.335Z,12.50
2018-02-10T14:29:20.368Z,11.85
2018-02-10T14:31:48.510Z,12.68
2018-02-10T14:34:16.609Z,12.37
2018-02-10T14:36:44.694Z,12.25
2018-02-10T14:39:12.895Z,12.02
2018-02-10T14:41:41.610Z,11.70
2018-02-10T14:44:10.004Z,12.77
2018-02-10T14:46:38.299Z,12.48
2018-02-10T14:49:07.728Z,13.62
2018-02-10T14:51:36.016Z,13.23
2018-02-10T14:54:04.404Z,11.88
2018-02-10T14:56:32.418Z,13.40
2018-02-10T14:59:00.807Z,12.57
2018-02-10T15:01:29.099Z,13.95
2018-02-10T15:03:57.189Z,13.75
2018-02-10T15:06:25.294Z,13.93
2018-02-10T15:08:53.483Z,15.32
2018-02-10T15:11:21.587Z,15.90
2018-02-10T15:13:50.800Z,15.32
2018-02-10T15:16:18.767Z,14.48
2018-02-10T15:18:46.981Z,12.93
2018-02-10T15:21:15.155Z,13.10
2018-02-10T15:23:43.286Z,14.43
2018-02-10T15:26:11.995Z,15.52
2018-02-10T15:28:40.589Z,15.93
2018-02-10T15:31:09.059Z,15.43
2018-02-10T15:33:37.355Z,17.25
2018-02-10T15:36:05.662Z,14.82
2018-02-10T15:38:33.968Z,15.27
2018-02-10T15:41:02.156Z,17.10
2018-02-10T15:43:30.258Z,15.85
2018-02-10T15:45:58.556Z,16.17
2018-02-10T15:48:26.689Z,15.40
2018-02-10T15:50:54.807Z,16.83
2018-02-10T15:53:23.013Z,16.50
2018-02-10T15:55:51.220Z,16.95
2018-02-10T15:58:19.361Z,17.12
2018-02-10T16:00:47.521Z,18.65
2018-02-10T16:03:15.624Z,17.45
2018-02-10T16:05:43.697Z,15.40
2018-02-10T16:08:11.990Z,16.30
2018-02-10T16:10:40.309Z,17.98
2018-02-10T16:13:09.400Z,17.33
2018-02-10T16:15:37.700Z,17.35
2018-02-10T16:18:06.003Z,16.65
2018-02-10T16:20:34.379Z,15.82
2018-02-10T16:23:02.619Z,16.90
2018-02-10T16:25:30.899Z,18.73
2018-02-10T16:27:59.005Z,17.12
2018-02-10T16:30:27.274Z,16.77
2018-02-10T16:32:55.396Z,19.67
2018-02-10T16:35:23.562Z,17.15
2018-02-10T16:37:51.972Z,17.75
2018-02-10T16:40:20.413Z,17.80
2018-02-10T16:42:48.654Z,19.33
2018-02-10T16:45:17.042Z,17.80
2018-02-10T16:47:45.478Z,19.30
2018-02-10T16:50:13.847Z,18.05
2018-02-10T16:52:42.141Z,18.77
2018-02-10T16:55:10.244Z,18.10
2018-02-10T16:57:38.522Z,18.58
2018-02-10T17:00:06.679Z,19.58
2018-02-10T17:02:35.330Z,19.08
2018-02-10T17:05:03.404Z,20.67
2018-02-10T17:07:31.536Z,21.95
2018-02-10T17:09:59.880Z,19.35
2018-02-10T17:12:28.518Z,21.87
2018-02-10T17:14:56.827Z,21.17
2018-02-10T17:17:25.089Z,20.23
2018-02-10T17:19:53.295Z,19.33
2018-02-10T17:22:21.691Z,20.92
2018-02-10T17:24:50.030Z,19.20
2018-02-10T17:27:18.193Z,20.08
2018-02-10T17:29:46.326Z,18.45
2018-02-10T17:32:14.377Z,21.37
2018-02-10T17:34:42.621Z,19.02
2018-02-10T17:37:10.681Z,20.88
2018-02-10T17:39:38.841Z,21.70
2018-02-10T17:42:07.053Z,21.67
2018-02-10T17:44:35.258Z,20.90
2018-02-10T17:47:03.337Z,22.75
2018-02-10T17:49:31.718Z,25.12
2018-02-10T17:52:00.020Z,23.58
2018-02-10T17:54:28.220Z,24.45
2018-02-10T17:56:56.208Z,22.13
2018-02-10T17:59:24.318Z,22.23
2018-02-10T18:01:53.119Z,24.52
2018-02-10T18:04:21.418Z,20.70
2018-02-10T18:06:49.614Z,25.00
2018-02-10T18:09:17.908Z,25.42
2018-02-10T18:11:46.008Z,22.35
2018-02-10T18:14:14.207Z,24.15
2018-02-10T18:16:42.488Z,22.20
2018-02-10T18:19:10.685Z,24.05
2018-02-10T18:21:38.889Z,22.90
2018-02-10T18:24:07.068Z,23.38
2018-02-10T18:26:35.362Z,22.33
2018-02-10T18:29:03.868Z,23.33
2018-02-10T18:31:32.066Z,22.23
2018-02-10T18:34:00.266Z,21.73
2018-02-10T18:36:28.662Z,23.50
2018-02-10T18:38:56.846Z,22.27
2018-02-10T18:41:25.048Z,25.27
2018-02-10T18:43:53.333Z,20.62
2018-02-10T18:46:21.532Z,22.40
2018-02-10T18:48:49.833Z,21.52
2018-02-10T18:51:17.938Z,20.80
2018-02-10T18:53:46.118Z,19.85
2018-02-10T18:56:14.198Z,24.52
2018-02-10T18:58:42.399Z,20.90
2018-02-10T19:01:10.562Z,23.33
2018-02-10T19:03:38.597Z,22.50
2018-02-10T19:06:06.889Z,24.27
2018-02-10T19:08:35.088Z,25.90
2018-02-10T19:11:03.269Z,23.87
2018-02-10T19:13:31.368Z,26.87
2018-02-10T19:15:59.561Z,25.35
2018-02-10T19:18:27.661Z,24.00
2018-02-10T19:20:55.791Z,24.27
2018-02-10T19:23:23.838Z,23.60
2018-02-10T19:25:52.040Z,26.58
2018-02-10T19:28:20.139Z,27.27
2018-02-10T19:30:48.316Z,26.55
2018-02-10T19:33:16.415Z,29.77
2018-02-10T19:35:44.614Z,35.28
2018-02-10T19:38:12.898Z,38.35
2018-02-10T19:40:41.099Z,37.45
2018-02-10T19:43:09.299Z,35.40
2018-02-10T19:45:37.507Z,32.05
2018-02-10T19:48:05.508Z,29.40
2018-02-10T19:50:33.766Z,31.10
2018-02-10T19:53:01.871Z,28.80
2018-02-10T19:55:30.070Z,47.70
2018-02-10T19:57:58.361Z,51.17
2018-02-10T20:00:26.560Z,56.30
2018-02-10T20:02:54.766Z,47.35
2018-02-10T20:05:22.942Z,40.10
2018-02-10T20:07:51.042Z,35.05
2018-02-10T20:10:21.360Z,33.97
2018-02-10T20:12:49.480Z,30.75
2018-02-10T20:15:17.658Z,31.02
2018-02-10T20:17:45.956Z,28.98
2018-02-10T20:20:14.455Z,29.50
2018-02-10T20:22:42.482Z,29.92
2018-02-10T20:25:10.739Z,31.00
2018-02-10T20:27:39.049Z,28.15
2018-02-10T20:30:07.268Z,27.40
2018-02-10T20:32:35.429Z,26.25
2018-02-10T20:35:03.618Z,25.67
2018-02-10T20:37:32.717Z,25.33
2018-02-10T20:40:01.041Z,25.80
2018-02-10T20:42:29.716Z,26.52
2018-02-10T20:44:58.074Z,26.92
2018-02-10T20:47:26.284Z,27.95
2018-02-10T20:49:54.634Z,28.00
2018-02-10T20:52:22.714Z,27.55
2018-02-10T20:54:50.814Z,25.35
2018-02-10T20:57:19.267Z,27.05
2018-02-10T20:59:47.399Z,26.35
2018-02-10T21:02:15.502Z,26.48
2018-02-10T21:04:43.655Z,25.92
2018-02-10T21:07:12.401Z,25.80
2018-02-10T21:09:40.595Z,27.92
2018-02-10T21:12:08.553Z,25.75
2018-02-10T21:14:36.843Z,25.05
2018-02-10T21:17:05.277Z,26.05
2018-02-10T21:19:33.477Z,25.90
2018-02-10T21:22:01.724Z,26.35
2018-02-10T21:24:29.977Z,25.20
2018-02-10T21:26:58.154Z,28.20
2018-02-10T21:29:26.364Z,26.92
2018-02-10T21:31:54.602Z,26.85
2018-02-10T21:34:24.178Z,26.00
2018-02-10T21:36:52.420Z,28.05
2018-02-10T21:39:20.556Z,25.62
2018-02-10T21:41:48.652Z,27.45
2018-02-10T21:44:16.859Z,25.17
2018-02-10T21:46:45.217Z,24.30
2018-02-10T21:49:13.488Z,24.35
2018-02-10T21:51:41.738Z,28.12
2018-02-10T21:54:09.796Z,28.05
2018-02-10T21:56:38.038Z,25.20
2018-02-10T21:59:06.716Z,27.05
2018-02-10T22:01:34.734Z,24.60
2018-02-10T22:04:02.918Z,26.85
2018-02-10T22:06:31.043Z,25.45
2018-02-10T22:08:59.204Z,26.75
2018-02-10T22:11:27.397Z,27.05
2018-02-10T22:13:56.590Z,25.55
2018-02-10T22:16:25.016Z,25.33
2018-02-10T22:18:53.168Z,23.20
2018-02-10T22:21:21.501Z,22.73
2018-02-10T22:23:49.694Z,25.65
2018-02-10T22:26:17.989Z,25.92
2018-02-10T22:28:47.274Z,23.35
2018-02-10T22:31:15.713Z,24.45
2018-02-10T22:33:44.310Z,20.05
2018-02-10T22:36:12.454Z,22.67
2018-02-10T22:38:40.640Z,22.77
2018-02-10T22:41:09.162Z,22.33
2018-02-10T22:43:37.494Z,25.37
2018-02-10T22:46:06.656Z,25.62
2018-02-10T22:48:34.696Z,24.35
2018-02-10T22:51:02.903Z,22.48
2018-02-10T22:53:31.508Z,24.52
2018-02-10T22:55:59.707Z,25.37
2018-02-10T22:58:28.007Z,24.92
2018-02-10T23:00:56.198Z,26.17
2018-02-10T23:03:24.598Z,24.30
2018-02-10T23:05:52.780Z,24.25
2018-02-10T23:08:21.583Z,27.33
2018-02-10T23:10:50.255Z,28.83
2018-02-10T23:13:18.388Z,29.12
2018-02-10T23:15:46.557Z,28.27
2018-02-10T23:18:14.774Z,28.65
2018-02-10T23:20:42.941Z,29.02
2018-02-10T23:23:11.281Z,26.85
2018-02-10T23:25:39.403Z,29.10
2018-02-10T23:28:07.886Z,34.47
2018-02-10T23:30:36.664Z,33.05
2018-02-10T23:33:05.055Z,34.67
2018-02-10T23:35:33.600Z,30.15
2018-02-10T23:38:01.978Z,29.77
2018-02-10T23:40:30.620Z,29.12
2018-02-10T23:42:59.302Z,30.85
2018-02-10T23:45:27.715Z,30.27
2018-02-10T23:47:56.742Z,30.75
2018-02-10T23:50:25.616Z,34.08
2018-02-10T23:52:53.999Z,33.10
2018-02-10T23:55:23.159Z,40.25
2018-02-10T23:57:51.961Z,48.53
